sensor_id;sensor_type;location;lat;lon;timestamp;P1;durP1;ratioP1;P2;durP2;ratioP2
3155;SDS011;1588;50.892;7.082;2022-07-23T00:01:25;24.03;;;13.07;;
3155;SDS011;1588;50.892;7.082;2022-07-23T00:06:29;26.53;;;13.03;;
3155;SDS011;1588;50.892;7.082;2022-07-23T00:11:31;26.93;;;13.00;;
3155;SDS011;1588;50.892;7.082;2022-07-23T00:16:53;30.57;;;13.97;;
3155;SDS011;1588;50.892;7.082;2022-07-23T00:21:56;27.00;;;14.73;;
3155;SDS011;1588;50.892;7.082;2022-07-23T00:26:58;33.27;;;13.20;;
3155;SDS011;1588;50.892;7.082;2022-07-23T00:32:01;32.87;;;13.47;;
3155;SDS011;1588;50.892;7.082;2022-07-23T00:37:04;27.13;;;13.83;;
3155;SDS011;1588;50.892;7.082;2022-07-23T00:42:06;31.80;;;14.30;;
3155;SDS011;1588;50.892;7.082;2022-07-23T00:47:29;31.03;;;14.10;;
3155;SDS011;1588;50.892;7.082;2022-07-23T00:52:32;34.73;;;14.83;;
3155;SDS011;1588;50.892;7.082;2022-07-23T00:57:36;30.03;;;15.60;;
3155;SDS011;1588;50.892;7.082;2022-07-23T01:02:40;31.67;;;14.87;;
3155;SDS011;1588;50.892;7.082;2022-07-23T01:07:43;27.77;;;13.90;;
3155;SDS011;1588;50.892;7.082;2022-07-23T01:12:46;31.60;;;13.93;;
3155;SDS011;1588;50.892;7.082;2022-07-23T01:17:49;30.80;;;13.50;;
3155;SDS011;1588;50.892;7.082;2022-07-23T01:22:53;31.80;;;13.23;;
3155;SDS011;1588;50.892;7.082;2022-07-23T01:27:56;26.60;;;13.17;;
3155;SDS011;1588;50.892;7.082;2022-07-23T01:32:59;28.90;;;13.00;;
3155;SDS011;1588;50.892;7.082;2022-07-23T01:38:02;28.27;;;12.27;;
3155;SDS011;1588;50.892;7.082;2022-07-23T01:43:05;25.50;;;12.57;;
3155;SDS011;1588;50.892;7.082;2022-07-23T01:48:07;32.93;;;13.00;;
3155;SDS011;1588;50.892;7.082;2022-07-23T01:53:11;23.60;;;12.50;;
3155;SDS011;1588;50.892;7.082;2022-07-23T01:58:13;35.93;;;14.77;;
3155;SDS011;1588;50.892;7.082;2022-07-23T02:03:15;34.23;;;15.00;;
3155;SDS011;1588;50.892;7.082;2022-07-23T02:08:23;26.03;;;13.20;;
3155;SDS011;1588;50.892;7.082;2022-07-23T02:13:26;29.97;;;15.17;;
3155;SDS011;1588;50.892;7.082;2022-07-23T02:18:29;30.47;;;12.60;;
3155;SDS011;1588;50.892;7.082;2022-07-23T02:23:33;26.97;;;13.07;;
3155;SDS011;1588;50.892;7.082;2022-07-23T02:28:35;31.60;;;13.43;;
3155;SDS011;1588;50.892;7.082;2022-07-23T02:33:37;37.20;;;13.80;;
3155;SDS011;1588;50.892;7.082;2022-07-23T02:38:41;25.00;;;13.33;;
3155;SDS011;1588;50.892;7.082;2022-07-23T02:43:43;27.13;;;14.03;;
3155;SDS011;1588;50.892;7.082;2022-07-23T02:48:45;30.53;;;15.50;;
3155;SDS011;1588;50.892;7.082;2022-07-23T02:53:48;30.87;;;15.73;;
3155;SDS011;1588;50.892;7.082;2022-07-23T02:58:51;34.10;;;16.50;;
3155;SDS011;1588;50.892;7.082;2022-07-23T03:03:53;46.17;;;17.30;;
3155;SDS011;1588;50.892;7.082;2022-07-23T03:08:56;43.37;;;17.47;;
3155;SDS011;1588;50.892;7.082;2022-07-23T03:13:59;43.50;;;18.90;;
3155;SDS011;1588;50.892;7.082;2022-07-23T03:19:03;53.67;;;21.10;;
3155;SDS011;1588;50.892;7.082;2022-07-23T03:24:07;42.23;;;19.10;;
3155;SDS011;1588;50.892;7.082;2022-07-23T03:29:10;35.30;;;18.20;;
3155;SDS011;1588;50.892;7.082;2022-07-23T03:34:12;40.07;;;19.20;;
3155;SDS011;1588;50.892;7.082;2022-07-23T03:39:15;39.17;;;16.73;;
3155;SDS011;1588;50.892;7.082;2022-07-23T03:44:18;35.23;;;16.93;;
3155;SDS011;1588;50.892;7.082;2022-07-23T03:49:20;38.20;;;16.67;;
3155;SDS011;1588;50.892;7.082;2022-07-23T03:54:24;32.20;;;14.77;;
3155;SDS011;1588;50.892;7.082;2022-07-23T03:59:26;35.37;;;15.23;;
3155;SDS011;1588;50.892;7.082;2022-07-23T04:04:28;32.33;;;16.00;;
3155;SDS011;1588;50.892;7.082;2022-07-23T04:09:32;39.10;;;17.23;;
3155;SDS011;1588;50.892;7.082;2022-07-23T04:14:35;32.90;;;15.63;;
3155;SDS011;1588;50.892;7.082;2022-07-23T04:19:39;31.30;;;16.17;;
3155;SDS011;1588;50.892;7.082;2022-07-23T04:24:45;37.40;;;17.13;;
3155;SDS011;1588;50.892;7.082;2022-07-23T04:29:47;39.80;;;15.13;;
3155;SDS011;1588;50.892;7.082;2022-07-23T04:34:49;40.70;;;17.33;;
3155;SDS011;1588;50.892;7.082;2022-07-23T04:39:53;34.80;;;15.70;;
3155;SDS011;1588;50.892;7.082;2022-07-23T04:44:55;35.07;;;16.13;;
3155;SDS011;1588;50.892;7.082;2022-07-23T04:49:57;42.07;;;18.00;;
3155;SDS011;1588;50.892;7.082;2022-07-23T04:55:19;44.73;;;20.57;;
3155;SDS011;1588;50.892;7.082;2022-07-23T05:00:22;42.37;;;18.93;;
3155;SDS011;1588;50.892;7.082;2022-07-23T05:05:24;34.20;;;16.47;;
3155;SDS011;1588;50.892;7.082;2022-07-23T05:10:27;49.13;;;19.90;;
3155;SDS011;1588;50.892;7.082;2022-07-23T05:15:30;45.50;;;19.90;;
3155;SDS011;1588;50.892;7.082;2022-07-23T05:20:32;48.83;;;19.07;;
3155;SDS011;1588;50.892;7.082;2022-07-23T05:25:35;36.77;;;17.60;;
3155;SDS011;1588;50.892;7.082;2022-07-23T05:30:38;38.17;;;17.53;;
3155;SDS011;1588;50.892;7.082;2022-07-23T05:35:40;39.97;;;18.10;;
3155;SDS011;1588;50.892;7.082;2022-07-23T05:40:43;37.33;;;18.00;;
3155;SDS011;1588;50.892;7.082;2022-07-23T05:45:45;35.57;;;16.60;;
3155;SDS011;1588;50.892;7.082;2022-07-23T05:50:48;31.03;;;16.23;;
3155;SDS011;1588;50.892;7.082;2022-07-23T05:55:51;36.63;;;15.93;;
3155;SDS011;1588;50.892;7.082;2022-07-23T06:00:53;31.53;;;15.43;;
3155;SDS011;1588;50.892;7.082;2022-07-23T06:05:56;29.40;;;14.60;;
3155;SDS011;1588;50.892;7.082;2022-07-23T06:10:59;29.87;;;14.83;;
3155;SDS011;1588;50.892;7.082;2022-07-23T06:16:02;34.23;;;15.50;;
3155;SDS011;1588;50.892;7.082;2022-07-23T06:21:04;29.03;;;14.50;;
3155;SDS011;1588;50.892;7.082;2022-07-23T06:26:09;36.27;;;16.10;;
3155;SDS011;1588;50.892;7.082;2022-07-23T06:31:11;29.20;;;13.50;;
3155;SDS011;1588;50.892;7.082;2022-07-23T06:36:14;28.30;;;14.40;;
3155;SDS011;1588;50.892;7.082;2022-07-23T06:41:17;25.10;;;12.97;;
3155;SDS011;1588;50.892;7.082;2022-07-23T06:46:19;27.60;;;12.93;;
3155;SDS011;1588;50.892;7.082;2022-07-23T06:51:22;25.40;;;12.67;;
3155;SDS011;1588;50.892;7.082;2022-07-23T06:56:26;23.30;;;11.87;;
3155;SDS011;1588;50.892;7.082;2022-07-23T07:01:28;26.20;;;12.70;;
3155;SDS011;1588;50.892;7.082;2022-07-23T07:06:30;27.83;;;11.20;;
3155;SDS011;1588;50.892;7.082;2022-07-23T07:11:34;26.27;;;11.60;;
3155;SDS011;1588;50.892;7.082;2022-07-23T07:16:37;20.27;;;12.00;;
3155;SDS011;1588;50.892;7.082;2022-07-23T07:21:39;26.77;;;10.40;;
3155;SDS011;1588;50.892;7.082;2022-07-23T07:26:43;17.93;;;10.27;;
3155;SDS011;1588;50.892;7.082;2022-07-23T07:31:45;22.00;;;9.07;;
3155;SDS011;1588;50.892;7.082;2022-07-23T07:36:47;21.43;;;11.00;;
3155;SDS011;1588;50.892;7.082;2022-07-23T07:41:51;22.27;;;9.90;;
3155;SDS011;1588;50.892;7.082;2022-07-23T07:46:54;16.53;;;10.10;;
3155;SDS011;1588;50.892;7.082;2022-07-23T07:51:56;15.13;;;8.83;;
3155;SDS011;1588;50.892;7.082;2022-07-23T07:56:59;22.90;;;10.37;;
3155;SDS011;1588;50.892;7.082;2022-07-23T08:02:02;25.87;;;9.87;;
3155;SDS011;1588;50.892;7.082;2022-07-23T08:07:04;27.17;;;10.93;;
3155;SDS011;1588;50.892;7.082;2022-07-23T08:12:08;18.33;;;10.00;;
3155;SDS011;1588;50.892;7.082;2022-07-23T08:17:29;16.27;;;9.93;;
3155;SDS011;1588;50.892;7.082;2022-07-23T08:22:44;21.03;;;11.47;;
3155;SDS011;1588;50.892;7.082;2022-07-23T08:27:49;16.03;;;10.70;;
3155;SDS011;1588;50.892;7.082;2022-07-23T08:32:53;19.50;;;10.17;;
3155;SDS011;1588;50.892;7.082;2022-07-23T08:37:57;18.10;;;10.40;;
3155;SDS011;1588;50.892;7.082;2022-07-23T08:43:02;22.83;;;10.23;;
3155;SDS011;1588;50.892;7.082;2022-07-23T08:48:07;16.67;;;9.93;;
3155;SDS011;1588;50.892;7.082;2022-07-23T08:53:14;22.23;;;11.67;;
3155;SDS011;1588;50.892;7.082;2022-07-23T08:58:18;15.03;;;10.87;;
3155;SDS011;1588;50.892;7.082;2022-07-23T09:03:21;15.60;;;9.60;;
3155;SDS011;1588;50.892;7.082;2022-07-23T09:08:33;16.07;;;9.67;;
3155;SDS011;1588;50.892;7.082;2022-07-23T09:13:39;15.60;;;10.23;;
3155;SDS011;1588;50.892;7.082;2022-07-23T09:18:45;17.00;;;9.37;;
3155;SDS011;1588;50.892;7.082;2022-07-23T09:23:50;14.00;;;8.93;;
3155;SDS011;1588;50.892;7.082;2022-07-23T09:28:57;15.20;;;9.10;;
3155;SDS011;1588;50.892;7.082;2022-07-23T09:34:07;11.30;;;8.60;;
3155;SDS011;1588;50.892;7.082;2022-07-23T09:39:11;13.03;;;7.90;;
3155;SDS011;1588;50.892;7.082;2022-07-23T09:44:16;11.10;;;6.30;;
3155;SDS011;1588;50.892;7.082;2022-07-23T09:49:20;10.33;;;7.40;;
3155;SDS011;1588;50.892;7.082;2022-07-23T09:54:27;16.00;;;9.00;;
3155;SDS011;1588;50.892;7.082;2022-07-23T09:59:33;15.27;;;8.83;;
3155;SDS011;1588;50.892;7.082;2022-07-23T10:04:37;11.40;;;7.43;;
3155;SDS011;1588;50.892;7.082;2022-07-23T10:09:40;9.23;;;7.00;;
3155;SDS011;1588;50.892;7.082;2022-07-23T10:14:45;11.87;;;7.30;;
3155;SDS011;1588;50.892;7.082;2022-07-23T10:19:48;23.33;;;8.47;;
3155;SDS011;1588;50.892;7.082;2022-07-23T10:24:57;11.43;;;7.67;;
3155;SDS011;1588;50.892;7.082;2022-07-23T10:30:07;14.90;;;7.53;;
3155;SDS011;1588;50.892;7.082;2022-07-23T10:35:17;10.60;;;7.50;;
3155;SDS011;1588;50.892;7.082;2022-07-23T10:40:24;11.23;;;8.03;;
3155;SDS011;1588;50.892;7.082;2022-07-23T10:45:29;13.93;;;7.93;;
3155;SDS011;1588;50.892;7.082;2022-07-23T10:50:33;14.33;;;7.37;;
3155;SDS011;1588;50.892;7.082;2022-07-23T10:55:40;11.50;;;7.40;;
3155;SDS011;1588;50.892;7.082;2022-07-23T11:00:54;10.80;;;7.03;;
3155;SDS011;1588;50.892;7.082;2022-07-23T11:05:56;10.33;;;7.60;;
3155;SDS011;1588;50.892;7.082;2022-07-23T11:11:09;10.83;;;7.00;;
3155;SDS011;1588;50.892;7.082;2022-07-23T11:16:15;14.43;;;7.83;;
3155;SDS011;1588;50.892;7.082;2022-07-23T11:26:48;10.33;;;6.50;;
3155;SDS011;1588;50.892;7.082;2022-07-23T11:31:53;9.47;;;6.50;;
3155;SDS011;1588;50.892;7.082;2022-07-23T11:36:57;10.63;;;6.43;;
3155;SDS011;1588;50.892;7.082;2022-07-23T11:42:00;8.97;;;5.77;;
3155;SDS011;1588;50.892;7.082;2022-07-23T11:47:07;5.57;;;4.93;;
3155;SDS011;1588;50.892;7.082;2022-07-23T11:52:11;6.77;;;5.60;;
3155;SDS011;1588;50.892;7.082;2022-07-23T11:57:14;6.07;;;5.17;;
3155;SDS011;1588;50.892;7.082;2022-07-23T12:02:19;4.60;;;4.00;;
3155;SDS011;1588;50.892;7.082;2022-07-23T12:07:22;7.57;;;5.07;;
3155;SDS011;1588;50.892;7.082;2022-07-23T12:12:35;6.37;;;5.13;;
3155;SDS011;1588;50.892;7.082;2022-07-23T12:17:40;7.40;;;5.20;;
3155;SDS011;1588;50.892;7.082;2022-07-23T12:22:44;5.50;;;4.97;;
3155;SDS011;1588;50.892;7.082;2022-07-23T12:28:00;7.67;;;4.90;;
3155;SDS011;1588;50.892;7.082;2022-07-23T12:33:06;7.00;;;5.90;;
3155;SDS011;1588;50.892;7.082;2022-07-23T12:38:17;8.73;;;5.77;;
3155;SDS011;1588;50.892;7.082;2022-07-23T12:43:21;12.43;;;6.30;;
3155;SDS011;1588;50.892;7.082;2022-07-23T12:48:27;6.30;;;4.93;;
3155;SDS011;1588;50.892;7.082;2022-07-23T12:53:30;9.23;;;6.93;;
3155;SDS011;1588;50.892;7.082;2022-07-23T12:58:41;9.17;;;6.90;;
3155;SDS011;1588;50.892;7.082;2022-07-23T13:03:54;23.77;;;8.60;;
3155;SDS011;1588;50.892;7.082;2022-07-23T13:08:59;22.27;;;8.97;;
3155;SDS011;1588;50.892;7.082;2022-07-23T13:14:10;8.60;;;6.77;;
3155;SDS011;1588;50.892;7.082;2022-07-23T13:19:15;13.00;;;7.67;;
3155;SDS011;1588;50.892;7.082;2022-07-23T13:24:36;11.63;;;7.20;;
3155;SDS011;1588;50.892;7.082;2022-07-23T13:29:38;25.30;;;6.53;;
3155;SDS011;1588;50.892;7.082;2022-07-23T13:34:43;10.70;;;7.23;;
3155;SDS011;1588;50.892;7.082;2022-07-23T13:39:47;15.17;;;6.80;;
3155;SDS011;1588;50.892;7.082;2022-07-23T13:44:59;9.47;;;5.80;;
3155;SDS011;1588;50.892;7.082;2022-07-23T13:50:04;9.07;;;6.20;;
3155;SDS011;1588;50.892;7.082;2022-07-23T13:55:08;6.10;;;4.10;;
3155;SDS011;1588;50.892;7.082;2022-07-23T14:00:12;10.70;;;5.57;;
3155;SDS011;1588;50.892;7.082;2022-07-23T14:05:16;5.87;;;4.57;;
3155;SDS011;1588;50.892;7.082;2022-07-23T14:10:22;7.43;;;4.57;;
3155;SDS011;1588;50.892;7.082;2022-07-23T14:15:30;7.20;;;3.90;;
3155;SDS011;1588;50.892;7.082;2022-07-23T14:20:35;5.07;;;3.80;;
3155;SDS011;1588;50.892;7.082;2022-07-23T14:25:37;9.57;;;6.03;;
3155;SDS011;1588;50.892;7.082;2022-07-23T14:30:40;6.90;;;3.80;;
3155;SDS011;1588;50.892;7.082;2022-07-23T14:35:45;4.63;;;3.93;;
3155;SDS011;1588;50.892;7.082;2022-07-23T14:40:53;4.50;;;4.10;;
3155;SDS011;1588;50.892;7.082;2022-07-23T14:46:05;6.30;;;4.93;;
3155;SDS011;1588;50.892;7.082;2022-07-23T14:51:15;9.30;;;4.87;;
3155;SDS011;1588;50.892;7.082;2022-07-23T14:56:25;12.37;;;4.30;;
3155;SDS011;1588;50.892;7.082;2022-07-23T15:01:30;5.33;;;4.10;;
3155;SDS011;1588;50.892;7.082;2022-07-23T15:06:40;4.97;;;4.07;;
3155;SDS011;1588;50.892;7.082;2022-07-23T15:11:43;4.97;;;4.27;;
3155;SDS011;1588;50.892;7.082;2022-07-23T15:16:52;7.10;;;3.50;;
3155;SDS011;1588;50.892;7.082;2022-07-23T15:21:59;6.00;;;3.53;;
3155;SDS011;1588;50.892;7.082;2022-07-23T15:27:02;6.30;;;3.97;;
3155;SDS011;1588;50.892;7.082;2022-07-23T15:32:09;8.70;;;4.83;;
3155;SDS011;1588;50.892;7.082;2022-07-23T15:37:16;7.20;;;4.70;;
3155;SDS011;1588;50.892;7.082;2022-07-23T15:42:19;5.33;;;4.30;;
3155;SDS011;1588;50.892;7.082;2022-07-23T15:47:21;12.37;;;4.07;;
3155;SDS011;1588;50.892;7.082;2022-07-23T15:52:33;9.10;;;3.90;;
3155;SDS011;1588;50.892;7.082;2022-07-23T15:57:36;5.30;;;4.47;;
3155;SDS011;1588;50.892;7.082;2022-07-23T16:02:39;9.37;;;3.33;;
3155;SDS011;1588;50.892;7.082;2022-07-23T16:07:43;10.90;;;4.00;;
3155;SDS011;1588;50.892;7.082;2022-07-23T16:13:00;5.90;;;4.10;;
3155;SDS011;1588;50.892;7.082;2022-07-23T16:18:20;4.60;;;3.40;;
3155;SDS011;1588;50.892;7.082;2022-07-23T16:23:49;6.33;;;3.60;;
3155;SDS011;1588;50.892;7.082;2022-07-23T16:29:24;6.73;;;4.40;;
3155;SDS011;1588;50.892;7.082;2022-07-23T16:34:30;4.60;;;3.70;;
3155;SDS011;1588;50.892;7.082;2022-07-23T16:39:36;6.67;;;4.87;;
3155;SDS011;1588;50.892;7.082;2022-07-23T16:44:39;4.83;;;4.33;;
3155;SDS011;1588;50.892;7.082;2022-07-23T16:49:41;5.10;;;4.47;;
3155;SDS011;1588;50.892;7.082;2022-07-23T16:54:45;3.63;;;3.27;;
3155;SDS011;1588;50.892;7.082;2022-07-23T16:59:47;4.93;;;4.20;;
3155;SDS011;1588;50.892;7.082;2022-07-23T17:04:50;7.90;;;4.60;;
3155;SDS011;1588;50.892;7.082;2022-07-23T17:09:54;5.93;;;3.80;;
3155;SDS011;1588;50.892;7.082;2022-07-23T17:14:56;4.97;;;3.60;;
3155;SDS011;1588;50.892;7.082;2022-07-23T17:19:58;4.50;;;4.03;;
3155;SDS011;1588;50.892;7.082;2022-07-23T17:25:05;11.20;;;4.50;;
3155;SDS011;1588;50.892;7.082;2022-07-23T17:30:12;5.77;;;3.60;;
3155;SDS011;1588;50.892;7.082;2022-07-23T17:35:15;6.23;;;4.40;;
3155;SDS011;1588;50.892;7.082;2022-07-23T17:40:19;6.90;;;4.87;;
3155;SDS011;1588;50.892;7.082;2022-07-23T17:45:21;7.30;;;5.27;;
3155;SDS011;1588;50.892;7.082;2022-07-23T17:50:24;5.03;;;3.70;;
3155;SDS011;1588;50.892;7.082;2022-07-23T17:55:28;4.80;;;4.30;;
3155;SDS011;1588;50.892;7.082;2022-07-23T18:00:33;7.07;;;3.90;;
3155;SDS011;1588;50.892;7.082;2022-07-23T18:05:36;5.03;;;4.33;;
3155;SDS011;1588;50.892;7.082;2022-07-23T18:10:42;16.70;;;6.97;;
3155;SDS011;1588;50.892;7.082;2022-07-23T18:15:44;4.43;;;4.03;;
3155;SDS011;1588;50.892;7.082;2022-07-23T18:20:47;4.63;;;3.93;;
3155;SDS011;1588;50.892;7.082;2022-07-23T18:25:52;5.87;;;4.57;;
3155;SDS011;1588;50.892;7.082;2022-07-23T18:30:56;14.60;;;10.87;;
3155;SDS011;1588;50.892;7.082;2022-07-23T18:35:59;6.13;;;4.53;;
3155;SDS011;1588;50.892;7.082;2022-07-23T18:41:09;13.60;;;8.80;;
3155;SDS011;1588;50.892;7.082;2022-07-23T18:46:13;6.90;;;5.13;;
3155;SDS011;1588;50.892;7.082;2022-07-23T18:51:16;5.73;;;5.23;;
3155;SDS011;1588;50.892;7.082;2022-07-23T18:56:21;6.87;;;5.57;;
3155;SDS011;1588;50.892;7.082;2022-07-23T19:01:23;7.20;;;5.57;;
3155;SDS011;1588;50.892;7.082;2022-07-23T19:06:30;5.43;;;4.93;;
3155;SDS011;1588;50.892;7.082;2022-07-23T19:11:34;7.07;;;4.83;;
3155;SDS011;1588;50.892;7.082;2022-07-23T19:16:37;8.43;;;6.73;;
3155;SDS011;1588;50.892;7.082;2022-07-23T19:21:41;16.03;;;7.10;;
3155;SDS011;1588;50.892;7.082;2022-07-23T19:26:45;7.73;;;5.23;;
3155;SDS011;1588;50.892;7.082;2022-07-23T19:31:47;4.90;;;3.97;;
3155;SDS011;1588;50.892;7.082;2022-07-23T19:36:49;7.27;;;5.17;;
3155;SDS011;1588;50.892;7.082;2022-07-23T19:41:55;6.13;;;4.80;;
3155;SDS011;1588;50.892;7.082;2022-07-23T19:46:58;7.40;;;4.97;;
3155;SDS011;1588;50.892;7.082;2022-07-23T19:52:01;6.37;;;5.13;;
3155;SDS011;1588;50.892;7.082;2022-07-23T19:57:05;8.17;;;5.10;;
3155;SDS011;1588;50.892;7.082;2022-07-23T20:02:07;6.73;;;5.47;;
3155;SDS011;1588;50.892;7.082;2022-07-23T20:07:10;6.53;;;5.10;;
3155;SDS011;1588;50.892;7.082;2022-07-23T20:12:13;6.43;;;5.50;;
3155;SDS011;1588;50.892;7.082;2022-07-23T20:17:16;7.37;;;5.57;;
3155;SDS011;1588;50.892;7.082;2022-07-23T20:22:18;6.70;;;5.60;;
3155;SDS011;1588;50.892;7.082;2022-07-23T20:27:22;27.07;;;6.50;;
3155;SDS011;1588;50.892;7.082;2022-07-23T20:32:24;9.67;;;5.63;;
3155;SDS011;1588;50.892;7.082;2022-07-23T20:37:26;10.77;;;5.90;;
3155;SDS011;1588;50.892;7.082;2022-07-23T20:42:30;10.77;;;6.03;;
3155;SDS011;1588;50.892;7.082;2022-07-23T20:47:32;5.77;;;5.17;;
3155;SDS011;1588;50.892;7.082;2022-07-23T20:52:35;13.77;;;6.03;;
3155;SDS011;1588;50.892;7.082;2022-07-23T20:57:39;11.33;;;5.97;;
3155;SDS011;1588;50.892;7.082;2022-07-23T21:02:48;13.83;;;7.53;;
3155;SDS011;1588;50.892;7.082;2022-07-23T21:07:51;43.73;;;21.30;;
3155;SDS011;1588;50.892;7.082;2022-07-23T21:12:54;19.87;;;8.67;;
3155;SDS011;1588;50.892;7.082;2022-07-23T21:17:57;45.17;;;21.90;;
3155;SDS011;1588;50.892;7.082;2022-07-23T21:22:59;26.17;;;13.53;;
3155;SDS011;1588;50.892;7.082;2022-07-23T21:28:09;70.87;;;33.17;;
3155;SDS011;1588;50.892;7.082;2022-07-23T21:33:12;37.80;;;20.47;;
3155;SDS011;1588;50.892;7.082;2022-07-23T21:38:15;25.50;;;14.10;;
3155;SDS011;1588;50.892;7.082;2022-07-23T21:43:19;15.27;;;8.80;;
3155;SDS011;1588;50.892;7.082;2022-07-23T21:48:23;12.33;;;7.30;;
3155;SDS011;1588;50.892;7.082;2022-07-23T21:53:25;13.40;;;8.97;;
3155;SDS011;1588;50.892;7.082;2022-07-23T21:58:29;18.00;;;7.40;;
3155;SDS011;1588;50.892;7.082;2022-07-23T22:03:32;14.70;;;7.73;;
3155;SDS011;1588;50.892;7.082;2022-07-23T22:08:37;9.37;;;7.33;;
3155;SDS011;1588;50.892;7.082;2022-07-23T22:13:41;126.60;;;82.73;;
3155;SDS011;1588;50.892;7.082;2022-07-23T22:18:43;65.90;;;39.87;;
3155;SDS011;1588;50.892;7.082;2022-07-23T22:23:46;30.27;;;19.67;;
3155;SDS011;1588;50.892;7.082;2022-07-23T22:28:50;57.27;;;30.73;;
3155;SDS011;1588;50.892;7.082;2022-07-23T22:33:52;34.40;;;19.40;;
3155;SDS011;1588;50.892;7.082;2022-07-23T22:38:54;26.30;;;16.33;;
3155;SDS011;1588;50.892;7.082;2022-07-23T22:43:58;24.00;;;15.17;;
3155;SDS011;1588;50.892;7.082;2022-07-23T22:49:01;10.97;;;8.10;;
3155;SDS011;1588;50.892;7.082;2022-07-23T22:54:03;10.53;;;6.77;;
3155;SDS011;1588;50.892;7.082;2022-07-23T22:59:08;13.20;;;7.80;;
3155;SDS011;1588;50.892;7.082;2022-07-23T23:04:20;14.50;;;7.97;;
3155;SDS011;1588;50.892;7.082;2022-07-23T23:09:23;8.60;;;7.13;;
3155;SDS011;1588;50.892;7.082;2022-07-23T23:14:26;12.60;;;7.77;;
3155;SDS011;1588;50.892;7.082;2022-07-23T23:19:29;12.07;;;7.90;;
3155;SDS011;1588;50.892;7.082;2022-07-23T23:24:34;13.17;;;8.03;;
3155;SDS011;1588;50.892;7.082;2022-07-23T23:29:37;11.20;;;7.20;;
3155;SDS011;1588;50.892;7.082;2022-07-23T23:34:40;10.30;;;7.70;;
3155;SDS011;1588;50.892;7.082;2022-07-23T23:39:42;10.90;;;7.70;;
3155;SDS011;1588;50.892;7.082;2022-07-23T23:44:46;15.87;;;8.17;;
3155;SDS011;1588;50.892;7.082;2022-07-23T23:49:48;13.77;;;8.47;;
3155;SDS011;1588;50.892;7.082;2022-07-23T23:54:50;11.03;;;8.10;;
3155;SDS011;1588;50.892;7.082;2022-07-23T23:59:55;12.07;;;8.50;;
